Time;durP1;ratioP1;P1;durP2;ratioP2;P2;SDS_P1;SDS_P2;PMS_P1;PMS_P2;Temp;Humidity;BMP_temperature;BMP_pressure;BME280_temperature;BME280_humidity;BME280_pressure;Samples;Min_cycle;Max_cycle;Signal;HPM_P1;HPM_P2
2024/03/02 00:00:21;;;;;;;44.42;22.92;;;;;;;9.09;100.00;145471.75;5070035;28;20063;-71
2024/03/02 00:02:49;;;;;;;43.33;22.40;;;;;;;8.41;100.00;145295.31;5051182;28;20112;-72
2024/03/02 00:05:18;;;;;;;50.72;24.23;;;;;;;8.85;100.00;145413.13;5067295;28;20495;-75
2024/03/02 00:07:54;;;;;;;48.70;23.67;;;;;;;9.02;100.00;145421.28;5073862;28;20029;-78
2024/03/02 00:10:42;;;;;;;44.97;23.52;;;;;;;9.02;100.00;145517.66;5059635;28;20059;-72
2024/03/02 00:13:08;;;;;;;45.30;23.35;;;;;;;8.84;100.00;145392.69;5067698;28;20062;-71
2024/03/02 00:15:43;;;;;;;47.10;22.42;;;;;;;9.07;100.00;145440.00;5069458;28;20103;-72
2024/03/02 00:18:11;;;;;;;42.72;22.10;;;;;;;8.46;100.00;145302.38;5068436;28;20079;-72
2024/03/02 00:20:37;;;;;;;43.75;22.73;;;;;;;8.94;100.00;145414.56;5065789;28;20028;-71
2024/03/02 00:23:07;;;;;;;40.22;22.33;;;;;;;9.05;100.00;145331.00;5069285;28;20418;-71
2024/03/02 00:25:40;;;;;;;40.20;21.60;;;;;;;8.55;100.00;145323.06;5068810;28;20040;-72
2024/03/02 00:28:24;;;;;;;37.38;21.23;;;;;;;-140.33;100.00;61596.09;5051198;28;20036;-72
2024/03/02 00:31:02;;;;;;;38.35;20.65;;;;;;;9.20;100.00;145672.16;5069438;28;20388;-72
2024/03/02 00:33:31;;;;;;;42.58;21.50;;;;;;;8.89;100.00;145182.88;5069243;28;20023;-73
2024/03/02 00:35:57;;;;;;;42.88;20.58;;;;;;;9.30;100.00;145261.06;5068940;28;20038;-72
2024/03/02 00:38:23;;;;;;;37.35;20.63;;;;;;;8.27;100.00;145018.66;5068973;28;20028;-72
2024/03/02 00:40:48;;;;;;;38.85;19.48;;;;;;;9.11;100.00;145198.03;5050874;28;20040;-71
2024/03/02 00:43:38;;;;;;;36.72;19.88;;;;;;;-140.33;100.00;61596.09;5068561;28;20032;-73
2024/03/02 00:46:04;;;;;;;39.35;20.35;;;;;;;9.27;100.00;145346.19;5051372;28;20028;-72
2024/03/02 00:48:36;;;;;;;37.03;20.63;;;;;;;-140.33;100.00;61596.09;5050323;28;20036;-72
2024/03/02 00:51:04;;;;;;;36.75;19.13;;;;;;;-140.33;100.00;61596.09;5051343;28;20024;-73
2024/03/02 00:53:30;;;;;;;41.17;22.52;;;;;;;-140.33;100.00;61596.09;5051417;28;20122;-73
2024/03/02 00:55:55;;;;;;;37.92;20.20;;;;;;;-140.33;100.00;61596.09;5050618;28;20629;-73
2024/03/02 00:58:21;;;;;;;40.65;21.05;;;;;;;-140.33;100.00;61596.09;5068934;28;20033;-72
2024/03/02 01:00:46;;;;;;;41.10;20.55;;;;;;;-140.33;100.00;61596.09;5069167;28;20043;-73
2024/03/02 01:03:12;;;;;;;39.95;20.63;;;;;;;-140.33;100.00;61596.09;5068744;28;20024;-77
2024/03/02 01:05:42;;;;;;;43.95;20.77;;;;;;;-140.33;100.00;61596.09;5067263;28;20121;-71
2024/03/02 01:08:08;;;;;;;37.17;21.17;;;;;;;-140.33;100.00;61596.09;5067846;28;20482;-72
2024/03/02 01:10:33;;;;;;;36.92;21.92;;;;;;;-140.33;100.00;61596.09;5068421;28;20028;-75
2024/03/02 01:12:58;;;;;;;40.45;22.42;;;;;;;-140.33;100.00;61596.09;5067779;28;20035;-72
2024/03/02 01:15:24;;;;;;;36.70;21.48;;;;;;;-140.33;100.00;61596.09;5067421;28;20032;-74
2024/03/02 01:17:49;;;;;;;44.78;22.67;;;;;;;-140.33;100.00;61596.09;5050364;28;20029;-72
2024/03/02 01:20:15;;;;;;;42.70;22.85;;;;;;;-140.33;100.00;61596.09;5050464;28;20024;-72
2024/03/02 01:22:40;;;;;;;39.35;21.90;;;;;;;-140.33;100.00;61596.09;5068963;28;20498;-72
2024/03/02 01:25:06;;;;;;;39.33;22.40;;;;;;;-140.33;100.00;61596.09;5067180;28;20040;-72
2024/03/02 01:27:31;;;;;;;42.13;23.52;;;;;;;-140.33;100.00;61596.09;5049491;28;20562;-71
2024/03/02 01:29:56;;;;;;;46.78;25.25;;;;;;;-140.33;100.00;61596.09;5068006;28;20108;-72
2024/03/02 01:32:22;;;;;;;42.83;23.08;;;;;;;-140.33;100.00;61596.09;5072124;28;20028;-72
2024/03/02 01:34:47;;;;;;;39.90;25.40;;;;;;;-140.33;100.00;61596.09;5060298;28;20517;-77
2024/03/02 01:37:13;;;;;;;46.45;26.13;;;;;;;-140.33;100.00;61596.09;5072784;28;20025;-71
2024/03/02 01:39:38;;;;;;;45.00;25.15;;;;;;;-140.33;100.00;61596.09;5072310;28;20044;-72
2024/03/02 01:42:04;;;;;;;50.50;27.90;;;;;;;-140.33;100.00;61596.09;5070863;28;20029;-77
2024/03/02 01:44:30;;;;;;;56.55;28.60;;;;;;;8.97;100.00;145707.00;5054263;28;20035;-73
2024/03/02 01:46:55;;;;;;;55.55;27.80;;;;;;;-140.33;100.00;61596.09;5054251;28;20033;-73
2024/03/02 01:49:21;;;;;;;50.53;26.75;;;;;;;9.29;100.00;144675.38;5073193;28;20060;-72
2024/03/02 01:51:46;;;;;;;47.67;26.13;;;;;;;-140.33;100.00;61596.09;5053551;28;20033;-71
2024/03/02 01:54:11;;;;;;;47.95;25.63;;;;;;;-140.33;100.00;61596.09;5053940;28;20509;-72
2024/03/02 01:56:37;;;;;;;49.25;23.65;;;;;;;-140.33;100.00;61596.09;5071901;28;20431;-72
2024/03/02 01:59:03;;;;;;;46.50;23.80;;;;;;;9.30;100.00;145183.97;5072058;28;20066;-72
2024/03/02 02:01:28;;;;;;;46.92;23.73;;;;;;;9.58;100.00;144711.28;5072296;28;20119;-72
2024/03/02 02:03:54;;;;;;;42.83;22.95;;;;;;;9.32;100.00;144709.72;5072002;28;20107;-72
2024/03/02 02:06:19;;;;;;;42.78;22.15;;;;;;;8.82;100.00;144828.13;5070907;28;20033;-72
2024/03/02 02:08:47;;;;;;;41.00;21.10;;;;;;;8.57;100.00;144868.59;5071278;28;20028;-71
2024/03/02 02:11:15;;;;;;;44.97;21.75;;;;;;;-140.33;100.00;61596.09;5071861;28;20107;-72
2024/03/02 02:13:41;;;;;;;43.50;22.40;;;;;;;-140.33;100.00;61596.09;5070120;28;20032;-72
2024/03/02 02:16:07;;;;;;;43.00;21.15;;;;;;;-140.33;100.00;61596.09;5053877;28;20032;-71
2024/03/02 02:18:33;;;;;;;37.80;21.73;;;;;;;-140.33;100.00;61596.09;5071923;28;20038;-72
2024/03/02 02:20:58;;;;;;;41.97;21.27;;;;;;;-140.33;100.00;61596.09;5060079;28;20028;-71
2024/03/02 02:23:23;;;;;;;39.35;21.60;;;;;;;-140.33;100.00;61596.09;5071335;28;20131;-71
2024/03/02 02:25:49;;;;;;;40.92;21.15;;;;;;;-140.33;100.00;61596.09;5071128;28;20036;-72
2024/03/02 02:28:14;;;;;;;39.75;20.80;;;;;;;-140.33;100.00;61596.09;5071333;28;20025;-72
2024/03/02 02:30:40;;;;;;;40.80;21.33;;;;;;;-140.33;100.00;61596.09;5063175;28;20094;-72
2024/03/02 02:33:05;;;;;;;40.40;21.15;;;;;;;-140.33;100.00;61596.09;5070052;28;20029;-72
2024/03/02 02:35:30;;;;;;;40.90;21.13;;;;;;;-140.33;100.00;61596.09;5053447;28;20094;-72
2024/03/02 02:37:57;;;;;;;42.17;20.60;;;;;;;-140.33;100.00;61596.09;5053312;28;20056;-72
2024/03/02 02:40:23;;;;;;;40.92;20.48;;;;;;;-140.33;100.00;61596.09;5071613;28;20056;-75
2024/03/02 02:42:48;;;;;;;42.30;20.75;;;;;;;-140.33;100.00;61596.09;5070669;28;20531;-73
2024/03/02 02:45:24;;;;;;;39.20;20.92;;;;;;;-140.33;100.00;61596.09;5069957;28;20419;-74
2024/03/02 02:47:49;;;;;;;39.15;20.30;;;;;;;-140.33;100.00;61596.09;5069420;28;20040;-72
2024/03/02 02:50:15;;;;;;;45.90;21.05;;;;;;;-140.33;100.00;61596.09;5053288;28;20036;-72
2024/03/02 02:52:42;;;;;;;38.83;20.08;;;;;;;-140.33;100.00;61596.09;5070756;28;20033;-71
2024/03/02 02:55:12;;;;;;;48.13;21.05;;;;;;;-140.33;100.00;61596.09;5072020;28;20051;-72
2024/03/02 02:57:40;;;;;;;37.22;19.25;;;;;;;-140.33;100.00;61596.09;5069359;28;20029;-71
2024/03/02 03:00:14;;;;;;;40.00;20.70;;;;;;;-140.33;100.00;61596.09;5053400;28;20039;-72
2024/03/02 03:02:43;;;;;;;40.13;20.05;;;;;;;-140.33;100.00;61596.09;5061618;28;20037;-72
2024/03/02 03:05:10;;;;;;;38.30;20.23;;;;;;;-140.33;100.00;61596.09;5052707;28;20605;-71
2024/03/02 03:07:36;;;;;;;40.63;20.92;;;;;;;-140.33;100.00;61596.09;5070559;28;20028;-71
2024/03/02 03:10:03;;;;;;;36.90;20.17;;;;;;;-140.33;100.00;61596.09;5070461;28;20078;-71
2024/03/02 03:12:29;;;;;;;34.67;19.88;;;;;;;-140.33;100.00;61596.09;5070730;28;20024;-72
2024/03/02 03:14:55;;;;;;;42.30;20.13;;;;;;;-140.33;100.00;61596.09;5070892;28;20028;-73
2024/03/02 03:17:21;;;;;;;38.78;20.35;;;;;;;-140.33;100.00;61596.09;5070412;28;20051;-70
2024/03/02 03:19:46;;;;;;;41.00;21.02;;;;;;;-140.33;100.00;61596.09;5070758;28;20491;-71
2024/03/02 03:22:13;;;;;;;37.88;21.13;;;;;;;8.77;100.00;145665.72;5070456;28;20120;-71
2024/03/02 03:24:39;;;;;;;40.42;20.25;;;;;;;9.31;100.00;144415.63;5070344;28;20032;-73
2024/03/02 03:27:04;;;;;;;39.65;19.05;;;;;;;8.73;100.00;144579.00;5070456;28;20028;-72
2024/03/02 03:29:29;;;;;;;39.05;20.77;;;;;;;9.23;100.00;144836.84;5070033;28;20044;-72
2024/03/02 03:31:55;;;;;;;40.97;21.52;;;;;;;8.66;100.00;144807.13;5059846;28;20481;-71
2024/03/02 03:34:20;;;;;;;38.13;20.48;;;;;;;9.13;100.00;145012.84;5059833;28;20137;-71
2024/03/02 03:36:46;;;;;;;43.83;20.90;;;;;;;8.80;100.00;145014.56;5070676;28;20031;-71
2024/03/02 03:39:11;;;;;;;35.17;20.58;;;;;;;-140.33;100.00;61596.09;5069693;28;20040;-71
2024/03/02 03:41:37;;;;;;;36.60;19.10;;;;;;;-140.33;100.00;61596.09;5069390;28;20063;-69
2024/03/02 03:44:03;;;;;;;37.28;19.52;;;;;;;8.53;100.00;145337.47;5058519;28;20028;-75
2024/03/02 03:46:29;;;;;;;37.45;20.35;;;;;;;8.63;100.00;144953.84;5067918;28;20063;-72
2024/03/02 03:48:55;;;;;;;35.28;18.75;;;;;;;-140.33;100.00;61596.09;5069850;28;20056;-70
2024/03/02 03:51:22;;;;;;;35.83;18.67;;;;;;;8.79;100.00;145288.06;5060229;28;20517;-70
2024/03/02 03:53:48;;;;;;;34.25;18.55;;;;;;;9.14;100.00;145064.06;5069143;28;20056;-72
2024/03/02 03:56:13;;;;;;;32.45;17.80;;;;;;;9.10;100.00;145157.06;5067383;28;20083;-77
2024/03/02 03:58:39;;;;;;;36.35;18.98;;;;;;;8.90;100.00;145112.06;5069305;28;20033;-72
2024/03/02 04:01:04;;;;;;;33.22;18.05;;;;;;;9.27;100.00;145244.81;5069598;28;20032;-78
2024/03/02 04:03:30;;;;;;;35.17;17.98;;;;;;;8.93;100.00;145200.34;5068803;28;20478;-71
2024/03/02 04:05:55;;;;;;;35.40;18.30;;;;;;;9.02;100.00;145287.72;5051046;28;20040;-71
2024/03/02 04:08:21;;;;;;;35.50;18.42;;;;;;;8.75;100.00;145175.59;5068462;28;20043;-71
2024/03/02 04:10:47;;;;;;;37.25;19.63;;;;;;;8.99;100.00;145284.31;5069532;28;20056;-72
2024/03/02 04:13:12;;;;;;;36.33;18.63;;;;;;;8.49;100.00;145185.22;5069910;28;20036;-72
2024/03/02 04:15:38;;;;;;;37.35;19.95;;;;;;;9.02;100.00;145312.19;5051708;28;20123;-72
2024/03/02 04:18:03;;;;;;;37.85;21.35;;;;;;;8.59;100.00;145218.69;5069079;28;20056;-71
2024/03/02 04:20:29;;;;;;;42.60;21.25;;;;;;;9.08;100.00;145358.88;5069085;28;20094;-72
2024/03/02 04:22:55;;;;;;;37.97;21.27;;;;;;;-140.33;100.00;61596.09;5051235;28;20550;-72
2024/03/02 04:25:21;;;;;;;39.05;23.17;;;;;;;-140.33;100.00;61596.09;5051248;28;20036;-71
2024/03/02 04:27:47;;;;;;;40.80;21.67;;;;;;;8.81;100.00;145599.81;5050865;28;20036;-79
2024/03/02 04:30:12;;;;;;;42.60;23.88;;;;;;;-140.33;100.00;61596.09;5052084;28;20506;-71
2024/03/02 04:32:38;;;;;;;45.53;24.10;;;;;;;-140.33;100.00;61596.09;5050038;28;20031;-71
2024/03/02 04:35:05;;;;;;;44.28;23.45;;;;;;;-140.33;100.00;61596.09;5068691;28;20033;-72
2024/03/02 04:37:33;;;;;;;41.35;22.77;;;;;;;-140.33;100.00;61596.09;5066820;28;20483;-72
2024/03/02 04:39:59;;;;;;;39.35;22.30;;;;;;;9.23;100.00;145769.47;5051157;28;20032;-72
2024/03/02 04:42:24;;;;;;;43.60;22.95;;;;;;;-140.33;100.00;61596.09;5069262;28;20035;-73
2024/03/02 04:44:50;;;;;;;40.08;21.65;;;;;;;9.13;100.00;145323.66;5056451;28;20469;-71
2024/03/02 04:47:15;;;;;;;40.75;20.63;;;;;;;-140.33;100.00;61596.09;5050535;28;20036;-76
2024/03/02 04:49:40;;;;;;;43.22;21.40;;;;;;;-140.33;100.00;61596.09;5050986;28;20043;-72
2024/03/02 04:52:06;;;;;;;40.03;19.80;;;;;;;9.15;100.00;145503.22;5050550;28;20039;-73
2024/03/02 04:54:31;;;;;;;39.20;20.38;;;;;;;8.56;100.00;144976.47;5050468;28;20032;-72
2024/03/02 04:56:58;;;;;;;39.30;21.00;;;;;;;9.22;100.00;145219.72;5068881;28;20028;-73
2024/03/02 04:59:23;;;;;;;42.45;21.42;;;;;;;8.65;100.00;145148.63;5049092;28;20032;-73
2024/03/02 05:01:49;;;;;;;43.50;21.48;;;;;;;9.02;100.00;145263.38;5050043;28;20029;-74
2024/03/02 05:04:14;;;;;;;39.22;21.52;;;;;;;8.77;100.00;145230.44;5068382;28;20031;-74
2024/03/02 05:06:41;;;;;;;44.10;21.08;;;;;;;-140.33;100.00;61596.09;5066929;28;20027;-73
2024/03/02 05:09:07;;;;;;;43.05;21.00;;;;;;;9.11;100.00;145362.44;5048236;28;20031;-72
2024/03/02 05:14:06;;;;;;;39.30;20.23;;;;;;;9.18;100.00;145591.41;5067797;28;20435;-75
2024/03/02 05:16:36;;;;;;;37.38;20.38;;;;;;;8.61;100.00;145188.88;5050525;28;20040;-73
2024/03/02 05:19:02;;;;;;;42.65;21.25;;;;;;;8.75;100.00;145237.22;5051197;28;20105;-73
2024/03/02 05:21:27;;;;;;;45.05;21.10;;;;;;;9.07;100.00;145342.41;5050630;28;20478;-76
2024/03/02 05:23:53;;;;;;;34.55;19.52;;;;;;;8.56;100.00;145244.69;5050292;28;20456;-73
2024/03/02 05:26:18;;;;;;;39.85;20.15;;;;;;;8.61;100.00;145238.97;5067790;28;20028;-74
2024/03/02 05:28:43;;;;;;;37.55;20.73;;;;;;;9.24;100.00;145373.63;5067143;28;20437;-72
2024/03/02 05:31:15;;;;;;;48.08;21.02;;;;;;;9.11;100.00;145448.41;5068310;28;20036;-73
2024/03/02 05:33:40;;;;;;;37.15;20.48;;;;;;;8.99;100.00;145376.78;5045250;28;20040;-73
2024/03/02 05:36:06;;;;;;;40.08;20.90;;;;;;;8.75;100.00;145319.38;5066569;28;20031;-73
2024/03/02 05:38:34;;;;;;;38.58;20.25;;;;;;;8.86;100.00;145338.53;5067065;28;20033;-76
2024/03/02 05:40:59;;;;;;;42.90;20.85;;;;;;;9.27;100.00;145356.47;5052751;28;20029;-71
2024/03/02 05:43:25;;;;;;;41.95;20.63;;;;;;;8.70;100.00;145307.13;5067337;28;20035;-73
2024/03/02 05:45:50;;;;;;;38.75;20.20;;;;;;;8.89;100.00;145308.69;5068752;28;20033;-69
2024/03/02 05:48:16;;;;;;;36.53;20.13;;;;;;;8.89;100.00;145331.81;5066205;28;20110;-71
2024/03/02 05:50:41;;;;;;;37.10;20.08;;;;;;;9.46;100.00;145450.53;5065353;28;20037;-71
2024/03/02 05:53:07;;;;;;;37.00;19.88;;;;;;;9.14;100.00;145408.28;5065272;28;20021;-71
2024/03/02 05:55:32;;;;;;;38.45;20.55;;;;;;;9.37;100.00;145443.91;5063399;28;20049;-70
2024/03/02 06:00:24;;;;;;;38.08;20.45;;;;;;;9.39;100.00;145448.81;5066411;28;20036;-70
2024/03/02 06:02:49;;;;;;;39.70;21.25;;;;;;;9.29;100.00;145451.28;5066115;28;20038;-70
2024/03/02 06:05:16;;;;;;;45.30;23.65;;;;;;;9.15;100.00;145431.31;5052942;28;20029;-74
2024/03/02 06:07:42;;;;;;;47.90;24.85;;;;;;;9.16;100.00;145452.94;5065501;28;20033;-71
2024/03/02 06:10:08;;;;;;;53.58;25.23;;;;;;;9.39;100.00;145498.88;5061652;28;20037;-71
2024/03/02 06:12:34;;;;;;;53.90;25.85;;;;;;;9.26;100.00;145365.66;5064125;28;20032;-70
2024/03/02 06:15:00;;;;;;;51.22;26.35;;;;;;;9.15;100.00;145338.81;5065947;28;20402;-69
2024/03/02 06:17:25;;;;;;;49.42;25.05;;;;;;;8.28;100.00;145228.84;5066145;28;20082;-70
2024/03/02 06:19:51;;;;;;;50.47;25.23;;;;;;;9.04;100.00;145394.13;5069982;28;20044;-72
2024/03/02 06:22:16;;;;;;;52.35;25.55;;;;;;;-140.33;100.00;61596.09;5066979;28;20123;-71
2024/03/02 06:24:42;;;;;;;49.97;26.48;;;;;;;9.33;100.00;145549.81;5069747;28;20795;-71
2024/03/02 06:27:07;;;;;;;48.78;25.85;;;;;;;8.71;100.00;145287.69;5054711;28;20025;-71
2024/03/02 06:29:33;;;;;;;49.40;26.08;;;;;;;9.48;100.00;145457.97;5049555;28;20028;-71
2024/03/02 06:31:59;;;;;;;51.90;27.13;;;;;;;9.20;100.00;145411.34;5067849;28;20036;-71
2024/03/02 06:34:25;;;;;;;50.22;26.52;;;;;;;8.95;100.00;145386.22;5070092;28;20402;-70
2024/03/02 06:36:50;;;;;;;47.55;24.08;;;;;;;9.32;100.00;145484.34;5070056;28;20028;-71
2024/03/02 06:39:16;;;;;;;45.35;22.92;;;;;;;9.24;100.00;145500.75;5057409;28;20478;-73
2024/03/02 06:41:42;;;;;;;40.08;23.27;;;;;;;-140.33;100.00;61596.09;5069656;28;20033;-71
2024/03/02 06:44:08;;;;;;;47.72;22.38;;;;;;;8.78;100.00;145616.78;5052149;28;20024;-75
2024/03/02 06:46:33;;;;;;;38.72;21.10;;;;;;;9.24;100.00;145467.34;5068412;28;20684;-71
2024/03/02 06:48:59;;;;;;;37.28;21.42;;;;;;;8.82;100.00;145350.63;5071773;28;20036;-73
2024/03/02 06:51:24;;;;;;;39.80;22.55;;;;;;;-140.33;100.00;61596.09;5070241;28;20032;-70
2024/03/02 06:53:50;;;;;;;38.13;22.55;;;;;;;-140.33;100.00;61596.09;5050904;28;20028;-71
2024/03/02 06:56:15;;;;;;;41.67;22.42;;;;;;;-140.33;100.00;61596.09;5069847;28;20055;-71
2024/03/02 06:58:41;;;;;;;40.08;22.08;;;;;;;8.57;100.00;145692.41;5069536;28;20032;-74
2024/03/02 07:01:06;;;;;;;41.90;23.17;;;;;;;-140.33;100.00;61596.09;5069459;28;20028;-75
2024/03/02 07:03:32;;;;;;;38.78;22.08;;;;;;;8.80;100.00;145400.88;5068981;28;20123;-70
2024/03/02 07:05:58;;;;;;;39.03;22.00;;;;;;;9.30;100.00;145315.00;5050987;28;20032;-71
2024/03/02 07:08:23;;;;;;;41.75;23.50;;;;;;;9.66;100.00;145430.00;5069626;28;20035;-69
2024/03/02 07:10:49;;;;;;;43.25;23.95;;;;;;;-140.33;100.00;61596.09;5068456;28;20043;-71
2024/03/02 07:13:14;;;;;;;39.95;25.05;;;;;;;-140.33;100.00;61596.09;5051488;28;20114;-71
2024/03/02 07:18:24;;;;;;;44.72;25.52;;;;;;;9.76;100.00;145967.53;5065968;28;20423;-71
2024/03/02 07:20:49;;;;;;;40.20;22.95;;;;;;;9.07;100.00;145206.28;5068283;28;20036;-75
2024/03/02 07:23:15;;;;;;;41.35;23.85;;;;;;;9.65;100.00;145419.81;5051159;28;20029;-71
2024/03/02 07:25:40;;;;;;;48.17;25.73;;;;;;;9.39;100.00;145406.34;5050592;28;20059;-70
2024/03/02 07:28:07;;;;;;;40.38;24.08;;;;;;;-140.33;100.00;61596.09;5069068;28;20024;-71
2024/03/02 07:30:33;;;;;;;40.25;23.60;;;;;;;-140.33;100.00;61596.09;5049950;28;20532;-72
2024/03/02 07:32:59;;;;;;;42.17;23.52;;;;;;;9.80;100.00;145885.97;5068475;28;20028;-69
2024/03/02 07:35:27;;;;;;;37.60;22.40;;;;;;;9.76;100.00;145440.34;5069114;28;20029;-69
2024/03/02 07:37:57;;;;;;;39.25;23.40;;;;;;;9.95;100.00;145572.84;5068580;28;20408;-72
2024/03/02 07:40:23;;;;;;;41.33;22.00;;;;;;;9.49;100.00;145462.97;5067858;28;20044;-71
2024/03/02 07:42:49;;;;;;;41.17;21.98;;;;;;;-140.33;100.00;61596.09;5068128;28;20127;-71
2024/03/02 07:45:15;;;;;;;39.03;23.10;;;;;;;-140.33;100.00;61596.09;5068325;28;21657;-72
2024/03/02 07:47:40;;;;;;;35.75;21.40;;;;;;;-140.33;100.00;61596.09;5068531;28;20024;-72
2024/03/02 07:50:06;;;;;;;33.42;19.02;;;;;;;9.95;100.00;146037.25;5068594;28;20108;-72
2024/03/02 07:52:33;;;;;;;32.10;19.20;;;;;;;-140.33;100.00;61596.09;5068294;28;20032;-69
2024/03/02 07:54:58;;;;;;;32.65;18.13;;;;;;;9.47;100.00;145614.88;5067750;28;20052;-69
2024/03/02 07:57:24;;;;;;;32.42;18.00;;;;;;;10.20;100.00;145522.16;5067416;28;20044;-70
2024/03/02 07:59:49;;;;;;;31.77;18.33;;;;;;;10.64;100.00;145573.00;5068980;28;20028;-70
2024/03/02 08:02:15;;;;;;;32.55;17.88;;;;;;;10.69;100.00;145701.16;5068615;28;20028;-71
2024/03/02 08:04:41;;;;;;;31.48;18.13;;;;;;;-140.33;100.00;61596.09;5050382;28;20584;-70
2024/03/02 08:07:06;;;;;;;34.45;18.13;;;;;;;-140.33;100.00;61596.09;5068119;28;20506;-69
2024/03/02 08:09:32;;;;;;;28.27;16.60;;;;;;;9.63;100.00;145909.94;5067709;28;20064;-72
2024/03/02 08:12:00;;;;;;;33.05;20.45;;;;;;;-140.33;100.00;61596.09;5050339;28;20039;-71
2024/03/02 08:14:26;;;;;;;30.02;16.90;;;;;;;-140.33;100.00;61596.09;5068969;28;20093;-70
2024/03/02 08:16:51;;;;;;;30.00;16.52;;;;;;;9.27;100.00;145771.53;5051365;28;20033;-70
2024/03/02 08:19:17;;;;;;;28.80;17.10;;;;;;;9.60;100.00;145433.31;5068595;28;20063;-70
2024/03/02 08:21:43;;;;;;;31.58;18.10;;;;;;;9.54;100.00;145472.63;5067113;28;20020;-70
2024/03/02 08:24:09;;;;;;;37.38;18.20;;;;;;;10.02;100.00;145571.94;5069698;28;20059;-70
2024/03/02 08:26:35;;;;;;;28.67;17.65;;;;;;;10.20;100.00;145547.91;5067362;28;20036;-70
2024/03/02 08:29:01;;;;;;;34.03;18.25;;;;;;;10.11;100.00;145658.34;5069099;28;20024;-70
2024/03/02 08:31:27;;;;;;;35.40;18.88;;;;;;;10.39;100.00;145783.50;5051280;28;20403;-71
2024/03/02 08:33:53;;;;;;;35.67;17.60;;;;;;;10.12;100.00;145712.22;5067254;28;20177;-70
2024/03/02 08:36:19;;;;;;;37.08;19.95;;;;;;;10.51;100.00;145805.25;5072621;28;20032;-70
2024/03/02 08:38:45;;;;;;;31.63;17.85;;;;;;;10.16;100.00;145790.31;5072325;28;20031;-73
2024/03/02 08:41:13;;;;;;;28.77;17.20;;;;;;;10.13;100.00;145781.59;5067987;28;20041;-69
2024/03/02 08:43:38;;;;;;;30.33;18.67;;;;;;;10.45;100.00;145857.41;5064423;28;20021;-69
2024/03/02 08:46:04;;;;;;;35.50;18.65;;;;;;;9.94;100.00;145729.94;5067154;28;20060;-70
2024/03/02 08:48:30;;;;;;;38.67;20.15;;;;;;;-140.33;100.00;61596.09;5067129;28;20051;-73
2024/03/02 08:50:56;;;;;;;27.35;17.10;;;;;;;-140.33;100.00;61596.09;5056583;28;20059;-69
2024/03/02 08:53:21;;;;;;;32.30;19.85;;;;;;;10.24;100.00;146152.22;5066781;28;20111;-70
2024/03/02 08:55:47;;;;;;;30.92;17.80;;;;;;;10.40;100.00;145811.66;5060398;28;20049;-69
2024/03/02 08:58:12;;;;;;;29.58;18.15;;;;;;;-140.33;100.00;61596.09;5066711;28;20479;-69
2024/03/02 09:00:38;;;;;;;29.30;17.42;;;;;;;10.02;100.00;145929.56;5067728;28;20032;-69
2024/03/02 09:03:04;;;;;;;30.27;17.88;;;;;;;10.07;100.00;145655.00;5049700;28;20461;-69
2024/03/02 09:05:29;;;;;;;29.15;17.10;;;;;;;10.81;100.00;145879.94;5067843;28;20040;-70
2024/03/02 09:07:55;;;;;;;32.28;18.17;;;;;;;9.96;100.00;145743.88;5068248;28;20045;-69
2024/03/02 09:10:21;;;;;;;30.13;17.92;;;;;;;10.33;100.00;145768.81;5067994;28;20451;-69
2024/03/02 09:12:46;;;;;;;30.90;18.80;;;;;;;10.18;100.00;145790.06;5068033;28;20086;-71
2024/03/02 09:15:12;;;;;;;31.17;18.13;;;;;;;10.44;100.00;145898.69;5050151;28;20040;-69
2024/03/02 09:17:37;;;;;;;33.97;18.38;;;;;;;-140.33;100.00;61596.09;5057618;28;20032;-69
2024/03/02 09:20:05;;;;;;;31.27;18.27;;;;;;;9.91;100.00;146020.94;5068737;28;20463;-74
2024/03/02 09:22:30;;;;;;;34.33;19.38;;;;;;;10.40;100.00;145846.47;5068025;28;20066;-70
2024/03/02 09:24:55;;;;;;;33.97;20.92;;;;;;;-140.33;100.00;61596.09;5067095;28;20499;-69
2024/03/02 09:27:22;;;;;;;35.05;20.63;;;;;;;10.39;100.00;146029.41;5055546;28;20391;-69
2024/03/02 09:29:48;;;;;;;36.53;21.05;;;;;;;-140.33;100.00;61596.09;5068270;28;20559;-71
2024/03/02 09:32:14;;;;;;;34.08;20.63;;;;;;;11.03;100.00;146142.50;5068391;28;20131;-69
2024/03/02 09:34:40;;;;;;;37.10;20.17;;;;;;;-140.33;100.00;61596.09;5066693;28;20033;-70
2024/03/02 09:37:05;;;;;;;36.20;20.20;;;;;;;10.99;100.00;146134.09;5068581;28;20033;-73
2024/03/02 09:39:31;;;;;;;36.60;21.85;;;;;;;10.36;100.00;145740.06;5068195;28;20656;-69
2024/03/02 09:41:58;;;;;;;32.85;20.02;;;;;;;11.53;100.00;145951.81;5065806;28;20021;-71
2024/03/02 09:44:25;;;;;;;36.47;21.52;;;;;;;11.35;100.00;146009.56;5068359;28;20044;-70
2024/03/02 09:46:51;;;;;;;32.50;20.98;;;;;;;10.34;100.00;145866.47;5068126;28;20115;-69
2024/03/02 09:49:16;;;;;;;33.47;19.88;;;;;;;10.60;100.00;145913.47;5066870;28;20539;-69
2024/03/02 09:51:47;;;;;;;29.77;19.42;;;;;;;10.63;100.00;145904.16;5058024;28;20115;-69
2024/03/02 09:54:12;;;;;;;27.07;15.83;;;;;;;11.21;100.00;146048.84;5053545;28;20052;-69
2024/03/02 09:56:39;;;;;;;31.77;19.77;;;;;;;11.07;100.00;146063.50;5069659;28;20363;-69
2024/03/02 09:59:04;;;;;;;35.78;20.85;;;;;;;11.36;100.00;145928.28;5071131;28;20032;-75
2024/03/02 10:01:30;;;;;;;27.40;17.58;;;;;;;10.70;100.00;146014.00;5064701;28;20515;-70
2024/03/02 10:03:59;;;;;;;24.70;16.00;;;;;;;10.71;100.00;146026.78;5071614;28;20123;-69
2024/03/02 10:06:27;;;;;;;27.63;17.48;;;;;;;11.13;100.00;146105.19;5070187;28;20459;-72
2024/03/02 10:08:53;;;;;;;26.48;16.30;;;;;;;11.36;100.00;146132.00;5071922;28;20056;-69
2024/03/02 10:11:35;;;;;;;26.08;16.92;;;;;;;11.38;100.00;146237.47;5069956;28;20037;-69
2024/03/02 10:14:11;;;;;;;29.85;16.67;;;;;;;11.15;100.00;146182.25;5062231;28;20423;-69
2024/03/02 10:16:41;;;;;;;27.05;15.95;;;;;;;11.16;100.00;146180.94;5070765;28;20056;-70
2024/03/02 10:19:23;;;;;;;26.90;17.83;;;;;;;11.26;100.00;146075.19;5053997;28;20115;-73
2024/03/02 10:21:53;;;;;;;28.00;18.30;;;;;;;10.55;100.00;145981.09;5071319;28;20028;-69
2024/03/02 10:24:20;;;;;;;29.48;17.85;;;;;;;11.12;100.00;146088.63;5071777;28;20487;-69
2024/03/02 10:26:46;;;;;;;25.45;17.25;;;;;;;11.51;100.00;146204.88;5070122;28;20032;-69
2024/03/02 10:29:12;;;;;;;28.52;17.77;;;;;;;10.84;100.00;145989.06;5053079;28;20035;-69
2024/03/02 10:31:39;;;;;;;28.27;17.85;;;;;;;11.45;100.00;146071.50;5053522;28;20036;-70
2024/03/02 10:34:06;;;;;;;29.92;17.48;;;;;;;-140.33;100.00;61596.09;5070766;28;20039;-70
2024/03/02 10:36:34;;;;;;;30.38;17.77;;;;;;;11.57;100.00;146384.69;5071208;28;20082;-70
2024/03/02 10:39:03;;;;;;;26.58;17.17;;;;;;;11.61;100.00;146188.13;5071469;28;20123;-69
2024/03/02 10:41:31;;;;;;;35.45;18.15;;;;;;;11.67;100.00;146129.41;5071025;28;20052;-70
2024/03/02 10:43:59;;;;;;;26.55;17.20;;;;;;;11.71;100.00;146130.13;5070975;28;20028;-69
2024/03/02 10:46:32;;;;;;;30.05;17.77;;;;;;;11.25;100.00;146066.38;5071371;28;20021;-70
2024/03/02 10:48:58;;;;;;;29.75;17.85;;;;;;;12.15;100.00;146232.81;5069216;28;20479;-69
2024/03/02 10:51:31;;;;;;;29.63;18.40;;;;;;;12.56;100.00;146306.25;5071153;28;20074;-70
2024/03/02 10:53:57;;;;;;;29.13;17.90;;;;;;;12.68;100.00;146366.69;5071174;28;20040;-69
2024/03/02 10:56:39;;;;;;;27.77;18.80;;;;;;;12.78;100.00;146392.59;5069231;28;20044;-69
2024/03/02 10:59:33;;;;;;;25.98;18.98;;;;;;;12.48;100.00;146410.66;5052747;28;21518;-69
2024/03/02 11:02:00;;;;;;;26.20;18.73;;;;;;;12.55;100.00;146287.09;5070218;28;20028;-69
2024/03/02 11:04:27;;;;;;;32.63;19.30;;;;;;;12.43;100.00;146305.41;5070105;28;20036;-70
2024/03/02 11:07:04;;;;;;;33.60;20.55;;;;;;;11.74;100.00;146138.84;5068592;28;20028;-69